sensor_id;sensor_type;location;lat;lon;timestamp;P1;durP1;ratioP1;P2;durP2;ratioP2
12760;SDS011;6444;49.742;6.114;2023-02-28T00:00:19;1.57;;;1.47;;
12760;SDS011;6444;49.742;6.114;2023-02-28T00:02:45;4.63;;;1.40;;
12760;SDS011;6444;49.742;6.114;2023-02-28T00:05:13;1.50;;;1.40;;
12760;SDS011;6444;49.742;6.114;2023-02-28T00:07:39;1.37;;;1.23;;
12760;SDS011;6444;49.742;6.114;2023-02-28T00:10:06;1.50;;;1.40;;
12760;SDS011;6444;49.742;6.114;2023-02-28T00:12:33;1.30;;;1.20;;
12760;SDS011;6444;49.742;6.114;2023-02-28T00:14:59;3.90;;;1.70;;
12760;SDS011;6444;49.742;6.114;2023-02-28T00:17:26;2.70;;;1.70;;
12760;SDS011;6444;49.742;6.114;2023-02-28T00:19:52;1.60;;;1.50;;
12760;SDS011;6444;49.742;6.114;2023-02-28T00:22:19;1.40;;;1.30;;
12760;SDS011;6444;49.742;6.114;2023-02-28T00:24:46;1.77;;;1.37;;
12760;SDS011;6444;49.742;6.114;2023-02-28T00:27:13;1.40;;;1.30;;
12760;SDS011;6444;49.742;6.114;2023-02-28T00:29:40;2.53;;;1.43;;
12760;SDS011;6444;49.742;6.114;2023-02-28T00:32:06;1.50;;;1.40;;
12760;SDS011;6444;49.742;6.114;2023-02-28T00:34:34;2.07;;;1.67;;
12760;SDS011;6444;49.742;6.114;2023-02-28T00:37:00;3.53;;;1.40;;
12760;SDS011;6444;49.742;6.114;2023-02-28T00:39:27;1.70;;;1.60;;
12760;SDS011;6444;49.742;6.114;2023-02-28T00:41:54;2.50;;;1.30;;
12760;SDS011;6444;49.742;6.114;2023-02-28T00:44:20;1.80;;;1.60;;
12760;SDS011;6444;49.742;6.114;2023-02-28T00:46:47;1.83;;;1.43;;
12760;SDS011;6444;49.742;6.114;2023-02-28T00:49:13;2.10;;;1.43;;
12760;SDS011;6444;49.742;6.114;2023-02-28T00:51:40;1.83;;;1.70;;
12760;SDS011;6444;49.742;6.114;2023-02-28T00:54:07;4.50;;;1.40;;
12760;SDS011;6444;49.742;6.114;2023-02-28T00:56:33;1.70;;;1.60;;
12760;SDS011;6444;49.742;6.114;2023-02-28T00:59:00;2.07;;;1.40;;
12760;SDS011;6444;49.742;6.114;2023-02-28T01:01:27;3.23;;;1.90;;
12760;SDS011;6444;49.742;6.114;2023-02-28T01:03:54;1.70;;;1.40;;
12760;SDS011;6444;49.742;6.114;2023-02-28T01:06:21;2.83;;;1.50;;
12760;SDS011;6444;49.742;6.114;2023-02-28T01:08:47;1.90;;;1.70;;
12760;SDS011;6444;49.742;6.114;2023-02-28T01:11:15;1.83;;;1.60;;
12760;SDS011;6444;49.742;6.114;2023-02-28T01:13:41;2.60;;;1.50;;
12760;SDS011;6444;49.742;6.114;2023-02-28T01:16:07;2.77;;;1.43;;
12760;SDS011;6444;49.742;6.114;2023-02-28T01:18:34;2.23;;;1.63;;
12760;SDS011;6444;49.742;6.114;2023-02-28T01:21:07;3.60;;;1.47;;
12760;SDS011;6444;49.742;6.114;2023-02-28T01:23:33;2.57;;;1.80;;
12760;SDS011;6444;49.742;6.114;2023-02-28T01:26:06;1.73;;;1.63;;
12760;SDS011;6444;49.742;6.114;2023-02-28T01:28:32;2.58;;;2.37;;
12760;SDS011;6444;49.742;6.114;2023-02-28T01:30:59;3.03;;;2.00;;
12760;SDS011;6444;49.742;6.114;2023-02-28T01:33:26;1.80;;;1.70;;
12760;SDS011;6444;49.742;6.114;2023-02-28T01:35:59;2.13;;;1.90;;
12760;SDS011;6444;49.742;6.114;2023-02-28T01:38:25;2.50;;;1.80;;
12760;SDS011;6444;49.742;6.114;2023-02-28T01:40:52;1.87;;;1.50;;
12760;SDS011;6444;49.742;6.114;2023-02-28T01:43:21;2.50;;;1.83;;
12760;SDS011;6444;49.742;6.114;2023-02-28T01:45:46;2.57;;;1.77;;
12760;SDS011;6444;49.742;6.114;2023-02-28T01:48:12;1.93;;;1.73;;
12760;SDS011;6444;49.742;6.114;2023-02-28T01:50:41;3.07;;;1.40;;
12760;SDS011;6444;49.742;6.114;2023-02-28T01:53:06;2.23;;;1.60;;
12760;SDS011;6444;49.742;6.114;2023-02-28T01:55:32;2.20;;;1.77;;
12760;SDS011;6444;49.742;6.114;2023-02-28T01:58:00;1.77;;;1.67;;
12760;SDS011;6444;49.742;6.114;2023-02-28T02:00:26;1.50;;;1.40;;
12760;SDS011;6444;49.742;6.114;2023-02-28T02:02:59;2.77;;;1.93;;
12760;SDS011;6444;49.742;6.114;2023-02-28T02:05:28;2.67;;;1.80;;
12760;SDS011;6444;49.742;6.114;2023-02-28T02:07:54;2.77;;;2.00;;
12760;SDS011;6444;49.742;6.114;2023-02-28T02:10:21;1.73;;;1.63;;
12760;SDS011;6444;49.742;6.114;2023-02-28T02:15:29;3.30;;;2.30;;
12760;SDS011;6444;49.742;6.114;2023-02-28T02:18:01;2.10;;;1.90;;
12760;SDS011;6444;49.742;6.114;2023-02-28T02:20:32;2.43;;;2.07;;
12760;SDS011;6444;49.742;6.114;2023-02-28T02:33:26;1.83;;;1.67;;
12760;SDS011;6444;49.742;6.114;2023-02-28T02:36:06;5.13;;;1.80;;
12760;SDS011;6444;49.742;6.114;2023-02-28T02:38:51;3.80;;;3.17;;
12760;SDS011;6444;49.742;6.114;2023-02-28T02:41:33;2.37;;;2.03;;
12760;SDS011;6444;49.742;6.114;2023-02-28T02:44:07;3.23;;;2.03;;
12760;SDS011;6444;49.742;6.114;2023-02-28T02:46:33;5.32;;;3.50;;
12760;SDS011;6444;49.742;6.114;2023-02-28T02:49:00;4.70;;;2.30;;
12760;SDS011;6444;49.742;6.114;2023-02-28T02:51:27;3.63;;;2.20;;
12760;SDS011;6444;49.742;6.114;2023-02-28T02:53:55;4.13;;;2.27;;
12760;SDS011;6444;49.742;6.114;2023-02-28T02:56:25;3.07;;;2.20;;
12760;SDS011;6444;49.742;6.114;2023-02-28T02:58:49;3.60;;;2.10;;
12760;SDS011;6444;49.742;6.114;2023-02-28T03:01:18;2.80;;;2.53;;
12760;SDS011;6444;49.742;6.114;2023-02-28T03:03:45;2.30;;;2.10;;
12760;SDS011;6444;49.742;6.114;2023-02-28T03:06:12;2.97;;;1.87;;
12760;SDS011;6444;49.742;6.114;2023-02-28T03:08:39;4.20;;;3.58;;
12760;SDS011;6444;49.742;6.114;2023-02-28T03:11:06;2.77;;;2.50;;
12760;SDS011;6444;49.742;6.114;2023-02-28T03:24:31;3.80;;;2.60;;
12760;SDS011;6444;49.742;6.114;2023-02-28T03:27:33;2.90;;;2.60;;
12760;SDS011;6444;49.742;6.114;2023-02-28T03:29:39;4.10;;;2.80;;
12760;SDS011;6444;49.742;6.114;2023-02-28T03:32:11;2.47;;;2.27;;
12760;SDS011;6444;49.742;6.114;2023-02-28T03:34:36;3.57;;;2.43;;
12760;SDS011;6444;49.742;6.114;2023-02-28T03:37:05;4.17;;;2.50;;
12760;SDS011;6444;49.742;6.114;2023-02-28T03:39:37;3.00;;;2.40;;
12760;SDS011;6444;49.742;6.114;2023-02-28T03:42:11;2.20;;;2.00;;
12760;SDS011;6444;49.742;6.114;2023-02-28T03:44:40;4.73;;;2.40;;
12760;SDS011;6444;49.742;6.114;2023-02-28T03:47:12;3.50;;;2.40;;
12760;SDS011;6444;49.742;6.114;2023-02-28T03:49:45;3.57;;;2.60;;
12760;SDS011;6444;49.742;6.114;2023-02-28T03:52:10;3.87;;;3.10;;
12760;SDS011;6444;49.742;6.114;2023-02-28T03:54:46;3.63;;;2.67;;
12760;SDS011;6444;49.742;6.114;2023-02-28T03:57:31;2.30;;;2.10;;
12760;SDS011;6444;49.742;6.114;2023-02-28T03:59:56;3.50;;;2.57;;
12760;SDS011;6444;49.742;6.114;2023-02-28T04:02:21;3.47;;;2.63;;
12760;SDS011;6444;49.742;6.114;2023-02-28T04:04:47;2.60;;;2.20;;
12760;SDS011;6444;49.742;6.114;2023-02-28T04:07:14;3.53;;;2.57;;
12760;SDS011;6444;49.742;6.114;2023-02-28T04:09:41;4.80;;;2.93;;
12760;SDS011;6444;49.742;6.114;2023-02-28T04:12:08;6.60;;;3.13;;
12760;SDS011;6444;49.742;6.114;2023-02-28T04:14:34;3.70;;;2.90;;
12760;SDS011;6444;49.742;6.114;2023-02-28T04:17:01;3.30;;;2.90;;
12760;SDS011;6444;49.742;6.114;2023-02-28T04:19:28;5.23;;;3.07;;
12760;SDS011;6444;49.742;6.114;2023-02-28T04:21:54;4.30;;;3.00;;
12760;SDS011;6444;49.742;6.114;2023-02-28T04:24:22;4.17;;;3.30;;
12760;SDS011;6444;49.742;6.114;2023-02-28T04:26:48;6.57;;;5.72;;
12760;SDS011;6444;49.742;6.114;2023-02-28T04:29:18;5.63;;;3.47;;
12760;SDS011;6444;49.742;6.114;2023-02-28T04:31:41;4.07;;;3.67;;
12760;SDS011;6444;49.742;6.114;2023-02-28T04:34:07;6.00;;;3.70;;
12760;SDS011;6444;49.742;6.114;2023-02-28T04:36:35;5.70;;;4.13;;
12760;SDS011;6444;49.742;6.114;2023-02-28T04:39:01;3.87;;;3.47;;
12760;SDS011;6444;49.742;6.114;2023-02-28T04:41:28;4.77;;;2.97;;
12760;SDS011;6444;49.742;6.114;2023-02-28T04:43:55;5.47;;;3.43;;
12760;SDS011;6444;49.742;6.114;2023-02-28T04:46:22;7.30;;;3.70;;
12760;SDS011;6444;49.742;6.114;2023-02-28T04:48:49;5.00;;;3.20;;
12760;SDS011;6444;49.742;6.114;2023-02-28T04:51:16;4.93;;;3.67;;
12760;SDS011;6444;49.742;6.114;2023-02-28T04:53:42;4.67;;;3.30;;
12760;SDS011;6444;49.742;6.114;2023-02-28T04:56:10;8.13;;;6.05;;
12760;SDS011;6444;49.742;6.114;2023-02-28T04:58:38;7.67;;;4.37;;
12760;SDS011;6444;49.742;6.114;2023-02-28T05:01:05;9.53;;;3.90;;
12760;SDS011;6444;49.742;6.114;2023-02-28T05:03:31;8.57;;;3.87;;
12760;SDS011;6444;49.742;6.114;2023-02-28T05:05:58;7.07;;;4.10;;
12760;SDS011;6444;49.742;6.114;2023-02-28T05:08:25;6.83;;;4.53;;
12760;SDS011;6444;49.742;6.114;2023-02-28T05:10:52;5.83;;;4.17;;
12760;SDS011;6444;49.742;6.114;2023-02-28T05:13:18;5.03;;;3.97;;
12760;SDS011;6444;49.742;6.114;2023-02-28T05:15:45;6.70;;;4.17;;
12760;SDS011;6444;49.742;6.114;2023-02-28T05:18:12;8.40;;;4.30;;
12760;SDS011;6444;49.742;6.114;2023-02-28T05:20:39;6.00;;;4.10;;
12760;SDS011;6444;49.742;6.114;2023-02-28T05:23:06;6.57;;;4.13;;
12760;SDS011;6444;49.742;6.114;2023-02-28T05:25:32;6.07;;;4.40;;
12760;SDS011;6444;49.742;6.114;2023-02-28T05:27:59;4.50;;;3.70;;
12760;SDS011;6444;49.742;6.114;2023-02-28T05:30:25;7.07;;;4.63;;
12760;SDS011;6444;49.742;6.114;2023-02-28T05:32:53;6.37;;;4.27;;
12760;SDS011;6444;49.742;6.114;2023-02-28T05:35:19;8.73;;;4.77;;
12760;SDS011;6444;49.742;6.114;2023-02-28T05:37:46;6.83;;;4.93;;
12760;SDS011;6444;49.742;6.114;2023-02-28T05:40:13;8.43;;;4.93;;
12760;SDS011;6444;49.742;6.114;2023-02-28T05:42:39;6.93;;;4.67;;
12760;SDS011;6444;49.742;6.114;2023-02-28T05:45:07;9.47;;;5.20;;
12760;SDS011;6444;49.742;6.114;2023-02-28T05:47:33;8.97;;;5.30;;
12760;SDS011;6444;49.742;6.114;2023-02-28T05:50:00;6.80;;;4.90;;
12760;SDS011;6444;49.742;6.114;2023-02-28T05:52:27;8.77;;;5.80;;
12760;SDS011;6444;49.742;6.114;2023-02-28T05:54:54;8.60;;;5.17;;
12760;SDS011;6444;49.742;6.114;2023-02-28T05:57:21;8.23;;;5.77;;
12760;SDS011;6444;49.742;6.114;2023-02-28T05:59:47;10.40;;;6.30;;
12760;SDS011;6444;49.742;6.114;2023-02-28T06:02:15;8.10;;;5.43;;
12760;SDS011;6444;49.742;6.114;2023-02-28T06:04:41;8.00;;;5.13;;
12760;SDS011;6444;49.742;6.114;2023-02-28T06:07:10;9.50;;;5.70;;
12760;SDS011;6444;49.742;6.114;2023-02-28T06:09:38;9.17;;;5.53;;
12760;SDS011;6444;49.742;6.114;2023-02-28T06:12:05;9.93;;;5.73;;
12760;SDS011;6444;49.742;6.114;2023-02-28T06:14:32;10.07;;;6.30;;
12760;SDS011;6444;49.742;6.114;2023-02-28T06:16:58;10.57;;;6.20;;
12760;SDS011;6444;49.742;6.114;2023-02-28T06:19:24;18.20;;;12.57;;
12760;SDS011;6444;49.742;6.114;2023-02-28T06:21:51;22.43;;;10.33;;
12760;SDS011;6444;49.742;6.114;2023-02-28T06:24:21;27.27;;;16.35;;
12760;SDS011;6444;49.742;6.114;2023-02-28T06:26:47;29.87;;;12.97;;
12760;SDS011;6444;49.742;6.114;2023-02-28T06:29:14;20.63;;;10.10;;
12760;SDS011;6444;49.742;6.114;2023-02-28T06:31:46;14.27;;;8.33;;
12760;SDS011;6444;49.742;6.114;2023-02-28T06:34:13;19.60;;;9.50;;
12760;SDS011;6444;49.742;6.114;2023-02-28T06:36:40;15.43;;;8.93;;
12760;SDS011;6444;49.742;6.114;2023-02-28T06:39:06;21.90;;;11.03;;
12760;SDS011;6444;49.742;6.114;2023-02-28T06:41:33;18.20;;;10.43;;
12760;SDS011;6444;49.742;6.114;2023-02-28T06:43:59;20.37;;;10.27;;
12760;SDS011;6444;49.742;6.114;2023-02-28T06:46:26;19.17;;;10.47;;
12760;SDS011;6444;49.742;6.114;2023-02-28T06:48:52;15.00;;;9.77;;
12760;SDS011;6444;49.742;6.114;2023-02-28T06:51:20;18.50;;;10.20;;
12760;SDS011;6444;49.742;6.114;2023-02-28T06:53:46;20.17;;;10.57;;
12760;SDS011;6444;49.742;6.114;2023-02-28T06:56:13;17.40;;;10.17;;
12760;SDS011;6444;49.742;6.114;2023-02-28T06:58:39;18.13;;;10.83;;
12760;SDS011;6444;49.742;6.114;2023-02-28T07:01:06;16.33;;;10.67;;
12760;SDS011;6444;49.742;6.114;2023-02-28T07:03:32;18.43;;;10.10;;
12760;SDS011;6444;49.742;6.114;2023-02-28T07:05:59;20.50;;;10.77;;
12760;SDS011;6444;49.742;6.114;2023-02-28T07:08:25;17.07;;;10.97;;
12760;SDS011;6444;49.742;6.114;2023-02-28T07:10:55;16.53;;;10.90;;
12760;SDS011;6444;49.742;6.114;2023-02-28T07:13:22;19.63;;;11.73;;
12760;SDS011;6444;49.742;6.114;2023-02-28T07:15:58;20.23;;;11.20;;
12760;SDS011;6444;49.742;6.114;2023-02-28T07:18:24;19.53;;;11.10;;
12760;SDS011;6444;49.742;6.114;2023-02-28T07:20:51;16.97;;;9.97;;
12760;SDS011;6444;49.742;6.114;2023-02-28T07:23:18;15.93;;;10.27;;
12760;SDS011;6444;49.742;6.114;2023-02-28T07:25:45;16.67;;;9.40;;
12760;SDS011;6444;49.742;6.114;2023-02-28T07:28:12;15.50;;;10.10;;
12760;SDS011;6444;49.742;6.114;2023-02-28T07:30:39;13.17;;;9.37;;
12760;SDS011;6444;49.742;6.114;2023-02-28T07:33:05;14.63;;;9.70;;
12760;SDS011;6444;49.742;6.114;2023-02-28T07:35:32;10.02;;;8.70;;
12760;SDS011;6444;49.742;6.114;2023-02-28T07:37:58;8.80;;;6.13;;
12760;SDS011;6444;49.742;6.114;2023-02-28T07:40:26;9.23;;;6.90;;
12760;SDS011;6444;49.742;6.114;2023-02-28T07:42:53;9.07;;;7.37;;
12760;SDS011;6444;49.742;6.114;2023-02-28T07:45:20;6.83;;;5.70;;
12760;SDS011;6444;49.742;6.114;2023-02-28T07:47:47;8.00;;;6.87;;
12760;SDS011;6444;49.742;6.114;2023-02-28T07:50:14;6.27;;;5.43;;
12760;SDS011;6444;49.742;6.114;2023-02-28T07:52:40;5.80;;;5.03;;
12760;SDS011;6444;49.742;6.114;2023-02-28T07:55:07;6.67;;;5.60;;
12760;SDS011;6444;49.742;6.114;2023-02-28T07:57:33;6.97;;;5.87;;
12760;SDS011;6444;49.742;6.114;2023-02-28T08:00:00;9.13;;;5.97;;
12760;SDS011;6444;49.742;6.114;2023-02-28T08:02:26;6.60;;;5.77;;
12760;SDS011;6444;49.742;6.114;2023-02-28T08:04:53;6.93;;;5.50;;
12760;SDS011;6444;49.742;6.114;2023-02-28T08:07:20;6.40;;;5.33;;
12760;SDS011;6444;49.742;6.114;2023-02-28T08:09:46;7.77;;;5.47;;
12760;SDS011;6444;49.742;6.114;2023-02-28T08:12:13;7.60;;;5.37;;
12760;SDS011;6444;49.742;6.114;2023-02-28T08:14:40;6.22;;;5.62;;
12760;SDS011;6444;49.742;6.114;2023-02-28T08:17:06;6.17;;;4.97;;
12760;SDS011;6444;49.742;6.114;2023-02-28T08:19:33;6.50;;;4.77;;
12760;SDS011;6444;49.742;6.114;2023-02-28T08:21:59;5.80;;;4.20;;
12760;SDS011;6444;49.742;6.114;2023-02-28T08:24:26;5.60;;;4.20;;
12760;SDS011;6444;49.742;6.114;2023-02-28T08:26:53;3.70;;;3.30;;
12760;SDS011;6444;49.742;6.114;2023-02-28T08:29:19;4.30;;;3.90;;
12760;SDS011;6444;49.742;6.114;2023-02-28T08:31:46;5.67;;;4.00;;
12760;SDS011;6444;49.742;6.114;2023-02-28T08:34:13;4.27;;;3.70;;
12760;SDS011;6444;49.742;6.114;2023-02-28T08:36:39;4.00;;;3.67;;
12760;SDS011;6444;49.742;6.114;2023-02-28T08:39:06;3.70;;;3.40;;
12760;SDS011;6444;49.742;6.114;2023-02-28T08:41:33;5.27;;;3.53;;
12760;SDS011;6444;49.742;6.114;2023-02-28T08:43:59;4.50;;;4.00;;
12760;SDS011;6444;49.742;6.114;2023-02-28T08:46:26;4.32;;;3.85;;
12760;SDS011;6444;49.742;6.114;2023-02-28T08:48:53;5.10;;;3.80;;
12760;SDS011;6444;49.742;6.114;2023-02-28T08:51:23;4.90;;;3.75;;
12760;SDS011;6444;49.742;6.114;2023-02-28T08:53:50;4.00;;;3.55;;
12760;SDS011;6444;49.742;6.114;2023-02-28T08:56:17;5.40;;;4.17;;
12760;SDS011;6444;49.742;6.114;2023-02-28T08:58:44;4.65;;;3.92;;
12760;SDS011;6444;49.742;6.114;2023-02-28T09:01:11;4.53;;;3.60;;
12760;SDS011;6444;49.742;6.114;2023-02-28T09:03:38;5.40;;;3.55;;
12760;SDS011;6444;49.742;6.114;2023-02-28T09:06:04;4.22;;;3.50;;
12760;SDS011;6444;49.742;6.114;2023-02-28T09:08:31;4.78;;;3.47;;
12760;SDS011;6444;49.742;6.114;2023-02-28T09:10:57;3.90;;;3.37;;
12760;SDS011;6444;49.742;6.114;2023-02-28T09:13:25;4.82;;;4.10;;
12760;SDS011;6444;49.742;6.114;2023-02-28T09:15:51;4.85;;;3.78;;
12760;SDS011;6444;49.742;6.114;2023-02-28T09:18:17;5.28;;;3.62;;
12760;SDS011;6444;49.742;6.114;2023-02-28T09:20:44;7.95;;;3.67;;
12760;SDS011;6444;49.742;6.114;2023-02-28T09:23:11;3.20;;;2.90;;
12760;SDS011;6444;49.742;6.114;2023-02-28T09:25:37;3.25;;;2.92;;
12760;SDS011;6444;49.742;6.114;2023-02-28T09:28:04;3.80;;;3.25;;
12760;SDS011;6444;49.742;6.114;2023-02-28T09:30:30;4.70;;;3.37;;
12760;SDS011;6444;49.742;6.114;2023-02-28T09:32:57;3.92;;;3.10;;
12760;SDS011;6444;49.742;6.114;2023-02-28T09:35:24;3.10;;;2.83;;
12760;SDS011;6444;49.742;6.114;2023-02-28T09:37:50;3.58;;;2.97;;
12760;SDS011;6444;49.742;6.114;2023-02-28T09:40:22;3.47;;;3.17;;
12760;SDS011;6444;49.742;6.114;2023-02-28T09:42:49;4.18;;;3.20;;
12760;SDS011;6444;49.742;6.114;2023-02-28T09:48:01;3.50;;;3.20;;
12760;SDS011;6444;49.742;6.114;2023-02-28T09:50:31;3.92;;;3.05;;
12760;SDS011;6444;49.742;6.114;2023-02-28T09:52:57;3.25;;;2.95;;
12760;SDS011;6444;49.742;6.114;2023-02-28T09:55:37;2.78;;;2.58;;
12760;SDS011;6444;49.742;6.114;2023-02-28T09:58:00;3.10;;;2.75;;
12760;SDS011;6444;49.742;6.114;2023-02-28T10:00:45;2.55;;;2.30;;
12760;SDS011;6444;49.742;6.114;2023-02-28T10:03:00;3.20;;;2.35;;
12760;SDS011;6444;49.742;6.114;2023-02-28T10:05:48;2.90;;;2.70;;
12760;SDS011;6444;49.742;6.114;2023-02-28T10:10:49;3.22;;;2.30;;
12760;SDS011;6444;49.742;6.114;2023-02-28T10:16:05;2.55;;;2.35;;
12760;SDS011;6444;49.742;6.114;2023-02-28T10:18:48;3.47;;;2.40;;
12760;SDS011;6444;49.742;6.114;2023-02-28T10:21:19;3.28;;;2.47;;
12760;SDS011;6444;49.742;6.114;2023-02-28T10:23:44;2.55;;;2.30;;
12760;SDS011;6444;49.742;6.114;2023-02-28T10:26:12;2.78;;;2.58;;
12760;SDS011;6444;49.742;6.114;2023-02-28T10:28:38;2.62;;;2.20;;
12760;SDS011;6444;49.742;6.114;2023-02-28T10:31:04;2.42;;;2.22;;
12760;SDS011;6444;49.742;6.114;2023-02-28T10:33:34;2.22;;;2.03;;
12760;SDS011;6444;49.742;6.114;2023-02-28T10:35:58;3.30;;;2.95;;
12760;SDS011;6444;49.742;6.114;2023-02-28T10:38:26;3.30;;;2.80;;
12760;SDS011;6444;49.742;6.114;2023-02-28T10:40:51;3.28;;;2.80;;
12760;SDS011;6444;49.742;6.114;2023-02-28T10:43:20;4.12;;;3.08;;
12760;SDS011;6444;49.742;6.114;2023-02-28T10:48:29;3.65;;;3.20;;
12760;SDS011;6444;49.742;6.114;2023-02-28T10:50:55;3.22;;;2.92;;
12760;SDS011;6444;49.742;6.114;2023-02-28T10:53:25;4.15;;;3.10;;
12760;SDS011;6444;49.742;6.114;2023-02-28T10:58:28;3.80;;;3.30;;
12760;SDS011;6444;49.742;6.114;2023-02-28T11:00:53;3.33;;;2.90;;
12760;SDS011;6444;49.742;6.114;2023-02-28T11:03:30;3.45;;;3.10;;
12760;SDS011;6444;49.742;6.114;2023-02-28T11:05:55;3.17;;;2.87;;
12760;SDS011;6444;49.742;6.114;2023-02-28T11:08:22;3.58;;;3.28;;
12760;SDS011;6444;49.742;6.114;2023-02-28T11:10:56;4.57;;;3.03;;
12760;SDS011;6444;49.742;6.114;2023-02-28T11:13:24;3.35;;;3.00;;
12760;SDS011;6444;49.742;6.114;2023-02-28T11:15:55;3.42;;;3.12;;
12760;SDS011;6444;49.742;6.114;2023-02-28T11:21:02;4.13;;;3.73;;
12760;SDS011;6444;49.742;6.114;2023-02-28T11:23:30;3.60;;;3.30;;
12760;SDS011;6444;49.742;6.114;2023-02-28T11:25:58;3.60;;;3.30;;
12760;SDS011;6444;49.742;6.114;2023-02-28T11:28:26;5.00;;;4.20;;
12760;SDS011;6444;49.742;6.114;2023-02-28T11:31:16;5.10;;;3.53;;
12760;SDS011;6444;49.742;6.114;2023-02-28T11:33:27;3.50;;;3.20;;
12760;SDS011;6444;49.742;6.114;2023-02-28T11:36:00;3.83;;;3.53;;
12760;SDS011;6444;49.742;6.114;2023-02-28T11:38:25;5.00;;;3.00;;
12760;SDS011;6444;49.742;6.114;2023-02-28T11:40:56;5.18;;;4.35;;
12760;SDS011;6444;49.742;6.114;2023-02-28T11:43:27;4.80;;;4.30;;
12760;SDS011;6444;49.742;6.114;2023-02-28T11:51:14;5.63;;;4.03;;
12760;SDS011;6444;49.742;6.114;2023-02-28T12:01:49;5.53;;;4.20;;
12760;SDS011;6444;49.742;6.114;2023-02-28T12:06:55;5.37;;;3.60;;
12760;SDS011;6444;49.742;6.114;2023-02-28T12:09:23;4.40;;;4.00;;
12760;SDS011;6444;49.742;6.114;2023-02-28T12:17:29;4.80;;;4.23;;
12760;SDS011;6444;49.742;6.114;2023-02-28T12:20:05;3.43;;;3.13;;
12760;SDS011;6444;49.742;6.114;2023-02-28T12:22:41;4.57;;;4.13;;
12760;SDS011;6444;49.742;6.114;2023-02-28T12:28:09;4.30;;;3.87;;
12760;SDS011;6444;49.742;6.114;2023-02-28T12:30:34;5.00;;;4.23;;
12760;SDS011;6444;49.742;6.114;2023-02-28T12:35:37;5.70;;;4.82;;
12760;SDS011;6444;49.742;6.114;2023-02-28T12:38:04;4.57;;;4.17;;
12760;SDS011;6444;49.742;6.114;2023-02-28T12:40:34;4.30;;;3.90;;
12760;SDS011;6444;49.742;6.114;2023-02-28T12:42:59;4.63;;;4.23;;
12760;SDS011;6444;49.742;6.114;2023-02-28T12:45:48;6.07;;;4.17;;
12760;SDS011;6444;49.742;6.114;2023-02-28T12:47:52;4.07;;;3.67;;
12760;SDS011;6444;49.742;6.114;2023-02-28T12:50:18;7.10;;;4.70;;
12760;SDS011;6444;49.742;6.114;2023-02-28T12:52:58;5.00;;;4.50;;
12760;SDS011;6444;49.742;6.114;2023-02-28T12:55:32;5.43;;;4.03;;
12760;SDS011;6444;49.742;6.114;2023-02-28T13:00:52;5.27;;;4.77;;
12760;SDS011;6444;49.742;6.114;2023-02-28T13:08:27;4.17;;;3.17;;
12760;SDS011;6444;49.742;6.114;2023-02-28T13:10:50;6.37;;;4.67;;
12760;SDS011;6444;49.742;6.114;2023-02-28T13:13:19;6.43;;;4.37;;
12760;SDS011;6444;49.742;6.114;2023-02-28T13:16:03;5.00;;;4.50;;
12760;SDS011;6444;49.742;6.114;2023-02-28T13:18:33;6.53;;;5.13;;
12760;SDS011;6444;49.742;6.114;2023-02-28T13:21:27;6.10;;;5.53;;
12760;SDS011;6444;49.742;6.114;2023-02-28T13:26:19;5.37;;;4.80;;
12760;SDS011;6444;49.742;6.114;2023-02-28T13:31:21;4.87;;;4.47;;
12760;SDS011;6444;49.742;6.114;2023-02-28T13:38:51;6.87;;;5.50;;
12760;SDS011;6444;49.742;6.114;2023-02-28T13:46:28;5.47;;;4.20;;
12760;SDS011;6444;49.742;6.114;2023-02-28T13:48:54;11.77;;;7.37;;
12760;SDS011;6444;49.742;6.114;2023-02-28T13:51:31;6.47;;;4.80;;
12760;SDS011;6444;49.742;6.114;2023-02-28T13:53:56;4.23;;;3.53;;
12760;SDS011;6444;49.742;6.114;2023-02-28T13:56:28;5.97;;;5.37;;
12760;SDS011;6444;49.742;6.114;2023-02-28T13:59:37;4.97;;;3.97;;
12760;SDS011;6444;49.742;6.114;2023-02-28T14:01:31;4.63;;;4.23;;
12760;SDS011;6444;49.742;6.114;2023-02-28T14:06:28;5.87;;;4.90;;
12760;SDS011;6444;49.742;6.114;2023-02-28T14:08:55;4.83;;;4.33;;
12760;SDS011;6444;49.742;6.114;2023-02-28T14:11:25;4.67;;;4.07;;
12760;SDS011;6444;49.742;6.114;2023-02-28T14:13:53;5.90;;;4.47;;
12760;SDS011;6444;49.742;6.114;2023-02-28T14:16:24;4.57;;;4.07;;
12760;SDS011;6444;49.742;6.114;2023-02-28T14:18:50;5.53;;;4.57;;
12760;SDS011;6444;49.742;6.114;2023-02-28T14:21:26;5.17;;;4.67;;
12760;SDS011;6444;49.742;6.114;2023-02-28T14:31:54;6.37;;;5.78;;
12760;SDS011;6444;49.742;6.114;2023-02-28T14:34:37;7.03;;;5.67;;
12760;SDS011;6444;49.742;6.114;2023-02-28T14:37:02;4.70;;;4.13;;
12760;SDS011;6444;49.742;6.114;2023-02-28T14:39:29;5.20;;;4.20;;
12760;SDS011;6444;49.742;6.114;2023-02-28T14:41:55;5.63;;;3.80;;
12760;SDS011;6444;49.742;6.114;2023-02-28T14:44:23;5.87;;;4.43;;
12760;SDS011;6444;49.742;6.114;2023-02-28T14:46:49;6.60;;;5.37;;
12760;SDS011;6444;49.742;6.114;2023-02-28T14:49:24;7.13;;;5.07;;
12760;SDS011;6444;49.742;6.114;2023-02-28T14:52:03;5.10;;;4.60;;
12760;SDS011;6444;49.742;6.114;2023-02-28T14:54:18;5.30;;;4.03;;
12760;SDS011;6444;49.742;6.114;2023-02-28T14:56:48;6.93;;;5.07;;
12760;SDS011;6444;49.742;6.114;2023-02-28T14:59:25;4.67;;;4.23;;
12760;SDS011;6444;49.742;6.114;2023-02-28T15:02:12;4.53;;;4.10;;
12760;SDS011;6444;49.742;6.114;2023-02-28T15:04:24;8.27;;;4.70;;
12760;SDS011;6444;49.742;6.114;2023-02-28T15:07:06;5.67;;;4.57;;
12760;SDS011;6444;49.742;6.114;2023-02-28T15:09:16;6.87;;;5.13;;
12760;SDS011;6444;49.742;6.114;2023-02-28T15:11:45;5.53;;;4.60;;
12760;SDS011;6444;49.742;6.114;2023-02-28T15:14:14;6.37;;;4.53;;
12760;SDS011;6444;49.742;6.114;2023-02-28T15:16:39;5.07;;;4.53;;
12760;SDS011;6444;49.742;6.114;2023-02-28T15:19:24;4.83;;;4.13;;
12760;SDS011;6444;49.742;6.114;2023-02-28T15:21:52;5.10;;;4.40;;
12760;SDS011;6444;49.742;6.114;2023-02-28T15:24:21;4.67;;;4.27;;
12760;SDS011;6444;49.742;6.114;2023-02-28T15:26:46;4.50;;;3.63;;
12760;SDS011;6444;49.742;6.114;2023-02-28T15:29:17;4.23;;;3.83;;
12760;SDS011;6444;49.742;6.114;2023-02-28T15:31:46;5.30;;;4.80;;
12760;SDS011;6444;49.742;6.114;2023-02-28T15:34:19;7.87;;;5.57;;
12760;SDS011;6444;49.742;6.114;2023-02-28T15:36:47;6.90;;;5.40;;
12760;SDS011;6444;49.742;6.114;2023-02-28T15:39:24;7.53;;;4.40;;
12760;SDS011;6444;49.742;6.114;2023-02-28T15:41:46;5.47;;;4.63;;
12760;SDS011;6444;49.742;6.114;2023-02-28T15:44:16;4.67;;;4.27;;
12760;SDS011;6444;49.742;6.114;2023-02-28T15:46:43;5.77;;;4.63;;
12760;SDS011;6444;49.742;6.114;2023-02-28T15:49:19;5.23;;;4.73;;
12760;SDS011;6444;49.742;6.114;2023-02-28T15:51:44;4.70;;;4.20;;
12760;SDS011;6444;49.742;6.114;2023-02-28T15:54:15;12.70;;;8.00;;
12760;SDS011;6444;49.742;6.114;2023-02-28T15:56:44;4.87;;;4.23;;
12760;SDS011;6444;49.742;6.114;2023-02-28T15:59:17;12.30;;;9.40;;
12760;SDS011;6444;49.742;6.114;2023-02-28T16:04:36;6.03;;;5.07;;
12760;SDS011;6444;49.742;6.114;2023-02-28T16:07:03;4.93;;;4.30;;
12760;SDS011;6444;49.742;6.114;2023-02-28T16:09:29;8.03;;;5.07;;
12760;SDS011;6444;49.742;6.114;2023-02-28T16:11:56;8.70;;;5.00;;
12760;SDS011;6444;49.742;6.114;2023-02-28T16:14:23;11.50;;;7.50;;
12760;SDS011;6444;49.742;6.114;2023-02-28T16:16:53;9.13;;;6.20;;
12760;SDS011;6444;49.742;6.114;2023-02-28T16:19:19;9.20;;;7.13;;
12760;SDS011;6444;49.742;6.114;2023-02-28T16:21:45;6.43;;;5.75;;
12760;SDS011;6444;49.742;6.114;2023-02-28T16:24:12;6.50;;;5.90;;
12760;SDS011;6444;49.742;6.114;2023-02-28T16:26:44;7.27;;;6.00;;
12760;SDS011;6444;49.742;6.114;2023-02-28T16:29:05;5.87;;;5.27;;
12760;SDS011;6444;49.742;6.114;2023-02-28T16:31:33;7.25;;;6.55;;
12760;SDS011;6444;49.742;6.114;2023-02-28T16:34:01;6.47;;;5.47;;
12760;SDS011;6444;49.742;6.114;2023-02-28T16:36:28;5.83;;;4.90;;
12760;SDS011;6444;49.742;6.114;2023-02-28T16:38:55;7.60;;;5.00;;
12760;SDS011;6444;49.742;6.114;2023-02-28T16:41:23;5.93;;;4.80;;
12760;SDS011;6444;49.742;6.114;2023-02-28T16:43:49;6.20;;;5.60;;
12760;SDS011;6444;49.742;6.114;2023-02-28T16:46:15;7.97;;;5.87;;
12760;SDS011;6444;49.742;6.114;2023-02-28T16:48:42;6.57;;;5.33;;